sensor_id;sensor_type;location;lat;lon;timestamp;temperature;humidity
2010;DHT22;1008;47.404;8.502;2023-08-06T00:00:13;17.30;99.90
2010;DHT22;1008;47.404;8.502;2023-08-06T00:02:41;17.00;99.90
2010;DHT22;1008;47.404;8.502;2023-08-06T00:05:08;16.90;99.90
2010;DHT22;1008;47.404;8.502;2023-08-06T00:07:34;17.00;99.90
2010;DHT22;1008;47.404;8.502;2023-08-06T00:10:01;16.90;99.90
2010;DHT22;1008;47.404;8.502;2023-08-06T00:12:28;16.80;99.90
2010;DHT22;1008;47.404;8.502;2023-08-06T00:14:55;16.80;99.90
2010;DHT22;1008;47.404;8.502;2023-08-06T00:17:22;16.80;99.90
2010;DHT22;1008;47.404;8.502;2023-08-06T00:19:50;17.00;99.90
2010;DHT22;1008;47.404;8.502;2023-08-06T00:22:16;16.80;99.90
2010;DHT22;1008;47.404;8.502;2023-08-06T00:24:43;16.80;99.90
2010;DHT22;1008;47.404;8.502;2023-08-06T00:27:10;16.80;99.90
2010;DHT22;1008;47.404;8.502;2023-08-06T00:29:36;16.80;99.90
2010;DHT22;1008;47.404;8.502;2023-08-06T00:32:03;16.80;99.90
2010;DHT22;1008;47.404;8.502;2023-08-06T00:34:30;16.90;99.90
2010;DHT22;1008;47.404;8.502;2023-08-06T00:36:58;17.10;99.90
2010;DHT22;1008;47.404;8.502;2023-08-06T00:39:25;16.60;99.90
2010;DHT22;1008;47.404;8.502;2023-08-06T00:41:51;16.60;99.90
2010;DHT22;1008;47.404;8.502;2023-08-06T00:44:18;16.50;99.90
2010;DHT22;1008;47.404;8.502;2023-08-06T00:46:45;16.80;99.90
2010;DHT22;1008;47.404;8.502;2023-08-06T00:49:11;16.60;99.90
2010;DHT22;1008;47.404;8.502;2023-08-06T00:51:38;16.60;99.90
2010;DHT22;1008;47.404;8.502;2023-08-06T00:54:06;16.50;99.90
2010;DHT22;1008;47.404;8.502;2023-08-06T00:56:34;16.40;99.90
2010;DHT22;1008;47.404;8.502;2023-08-06T00:59:02;16.30;99.90
2010;DHT22;1008;47.404;8.502;2023-08-06T01:01:29;16.30;99.90
2010;DHT22;1008;47.404;8.502;2023-08-06T01:03:56;16.20;99.90
2010;DHT22;1008;47.404;8.502;2023-08-06T01:06:32;16.20;99.90
2010;DHT22;1008;47.404;8.502;2023-08-06T01:09:10;16.20;99.90
2010;DHT22;1008;47.404;8.502;2023-08-06T01:11:47;16.10;99.90
2010;DHT22;1008;47.404;8.502;2023-08-06T01:14:26;16.10;99.90
2010;DHT22;1008;47.404;8.502;2023-08-06T01:16:55;16.10;99.90
2010;DHT22;1008;47.404;8.502;2023-08-06T01:19:22;16.10;99.90
2010;DHT22;1008;47.404;8.502;2023-08-06T01:21:50;16.10;99.90
2010;DHT22;1008;47.404;8.502;2023-08-06T01:24:17;16.00;99.90
2010;DHT22;1008;47.404;8.502;2023-08-06T01:26:48;16.40;99.90
2010;DHT22;1008;47.404;8.502;2023-08-06T01:29:19;16.00;99.90
2010;DHT22;1008;47.404;8.502;2023-08-06T01:31:51;16.00;99.90
2010;DHT22;1008;47.404;8.502;2023-08-06T01:34:22;16.10;99.90
2010;DHT22;1008;47.404;8.502;2023-08-06T01:36:51;16.10;99.90
2010;DHT22;1008;47.404;8.502;2023-08-06T01:39:18;16.10;99.90
2010;DHT22;1008;47.404;8.502;2023-08-06T01:41:46;16.10;99.90
2010;DHT22;1008;47.404;8.502;2023-08-06T01:44:13;16.10;99.90
2010;DHT22;1008;47.404;8.502;2023-08-06T01:46:40;16.00;99.90
2010;DHT22;1008;47.404;8.502;2023-08-06T01:49:07;16.10;99.90
2010;DHT22;1008;47.404;8.502;2023-08-06T01:51:34;16.10;99.90
2010;DHT22;1008;47.404;8.502;2023-08-06T01:54:02;16.10;99.90
2010;DHT22;1008;47.404;8.502;2023-08-06T01:56:28;16.10;99.90
2010;DHT22;1008;47.404;8.502;2023-08-06T01:58:55;16.20;99.90
2010;DHT22;1008;47.404;8.502;2023-08-06T02:01:22;16.20;99.90
2010;DHT22;1008;47.404;8.502;2023-08-06T02:03:48;16.20;99.90
2010;DHT22;1008;47.404;8.502;2023-08-06T02:06:15;16.20;99.90
2010;DHT22;1008;47.404;8.502;2023-08-06T02:08:42;16.20;99.90
2010;DHT22;1008;47.404;8.502;2023-08-06T02:11:10;16.50;99.90
2010;DHT22;1008;47.404;8.502;2023-08-06T02:13:36;16.10;99.90
2010;DHT22;1008;47.404;8.502;2023-08-06T02:16:03;16.10;99.90
2010;DHT22;1008;47.404;8.502;2023-08-06T02:18:33;16.10;99.90
2010;DHT22;1008;47.404;8.502;2023-08-06T02:21:00;16.00;99.90
2010;DHT22;1008;47.404;8.502;2023-08-06T02:23:26;15.90;99.90
2010;DHT22;1008;47.404;8.502;2023-08-06T02:26:00;15.90;99.90
2010;DHT22;1008;47.404;8.502;2023-08-06T02:28:28;15.80;99.90
2010;DHT22;1008;47.404;8.502;2023-08-06T02:30:55;15.90;99.90
2010;DHT22;1008;47.404;8.502;2023-08-06T02:33:22;15.90;99.90
2010;DHT22;1008;47.404;8.502;2023-08-06T02:35:49;16.10;99.90
2010;DHT22;1008;47.404;8.502;2023-08-06T02:38:15;16.00;99.90
2010;DHT22;1008;47.404;8.502;2023-08-06T02:40:45;16.00;99.90
2010;DHT22;1008;47.404;8.502;2023-08-06T02:43:12;16.10;99.90
2010;DHT22;1008;47.404;8.502;2023-08-06T02:45:41;16.20;99.90
2010;DHT22;1008;47.404;8.502;2023-08-06T02:48:08;16.10;99.90
2010;DHT22;1008;47.404;8.502;2023-08-06T02:50:38;16.40;99.90
2010;DHT22;1008;47.404;8.502;2023-08-06T02:53:05;16.10;99.90
2010;DHT22;1008;47.404;8.502;2023-08-06T02:55:32;16.20;99.90
2010;DHT22;1008;47.404;8.502;2023-08-06T02:58:00;16.10;99.90
2010;DHT22;1008;47.404;8.502;2023-08-06T03:00:27;16.10;99.90
2010;DHT22;1008;47.404;8.502;2023-08-06T03:02:55;16.10;99.90
2010;DHT22;1008;47.404;8.502;2023-08-06T03:05:22;16.10;99.90
2010;DHT22;1008;47.404;8.502;2023-08-06T03:07:48;15.90;99.90
2010;DHT22;1008;47.404;8.502;2023-08-06T03:10:15;16.40;99.90
2010;DHT22;1008;47.404;8.502;2023-08-06T03:12:42;16.10;99.90
2010;DHT22;1008;47.404;8.502;2023-08-06T03:15:09;16.10;99.90
2010;DHT22;1008;47.404;8.502;2023-08-06T03:17:36;16.10;99.90
2010;DHT22;1008;47.404;8.502;2023-08-06T03:20:05;16.10;99.90
2010;DHT22;1008;47.404;8.502;2023-08-06T03:22:32;15.80;99.90
2010;DHT22;1008;47.404;8.502;2023-08-06T03:24:59;15.80;99.90
2010;DHT22;1008;47.404;8.502;2023-08-06T03:27:26;15.70;99.90
2010;DHT22;1008;47.404;8.502;2023-08-06T03:29:52;15.60;99.90
2010;DHT22;1008;47.404;8.502;2023-08-06T03:32:19;15.60;99.90
2010;DHT22;1008;47.404;8.502;2023-08-06T03:34:46;15.60;99.90
2010;DHT22;1008;47.404;8.502;2023-08-06T03:37:14;15.60;99.90
2010;DHT22;1008;47.404;8.502;2023-08-06T03:39:40;15.60;99.90
2010;DHT22;1008;47.404;8.502;2023-08-06T03:42:07;15.60;99.90
2010;DHT22;1008;47.404;8.502;2023-08-06T03:44:34;15.50;99.90
2010;DHT22;1008;47.404;8.502;2023-08-06T03:47:00;15.50;99.90
2010;DHT22;1008;47.404;8.502;2023-08-06T03:49:27;15.50;99.90
2010;DHT22;1008;47.404;8.502;2023-08-06T03:51:54;15.50;99.90
2010;DHT22;1008;47.404;8.502;2023-08-06T03:54:22;15.60;99.90
2010;DHT22;1008;47.404;8.502;2023-08-06T03:56:48;15.60;99.90
2010;DHT22;1008;47.404;8.502;2023-08-06T03:59:15;15.70;99.90
2010;DHT22;1008;47.404;8.502;2023-08-06T04:01:42;15.60;99.90
2010;DHT22;1008;47.404;8.502;2023-08-06T04:04:09;15.60;99.90
2010;DHT22;1008;47.404;8.502;2023-08-06T04:06:35;15.70;99.90
2010;DHT22;1008;47.404;8.502;2023-08-06T04:09:02;15.80;99.90
2010;DHT22;1008;47.404;8.502;2023-08-06T04:11:30;15.70;99.90
2010;DHT22;1008;47.404;8.502;2023-08-06T04:13:57;15.70;99.90
2010;DHT22;1008;47.404;8.502;2023-08-06T04:16:24;15.70;99.90
2010;DHT22;1008;47.404;8.502;2023-08-06T04:18:51;15.70;99.90
2010;DHT22;1008;47.404;8.502;2023-08-06T04:21:19;15.70;99.90
2010;DHT22;1008;47.404;8.502;2023-08-06T04:23:45;15.70;99.90
2010;DHT22;1008;47.404;8.502;2023-08-06T04:26:12;16.00;99.90
2010;DHT22;1008;47.404;8.502;2023-08-06T04:28:40;15.90;99.90
2010;DHT22;1008;47.404;8.502;2023-08-06T04:31:07;16.10;99.90
2010;DHT22;1008;47.404;8.502;2023-08-06T04:33:34;15.50;99.90
2010;DHT22;1008;47.404;8.502;2023-08-06T04:36:01;15.30;99.90
2010;DHT22;1008;47.404;8.502;2023-08-06T04:38:27;15.10;99.90
2010;DHT22;1008;47.404;8.502;2023-08-06T04:40:54;14.70;99.90
2010;DHT22;1008;47.404;8.502;2023-08-06T04:43:21;14.40;99.90
2010;DHT22;1008;47.404;8.502;2023-08-06T04:45:49;14.30;99.90
2010;DHT22;1008;47.404;8.502;2023-08-06T04:48:16;14.20;99.90
2010;DHT22;1008;47.404;8.502;2023-08-06T04:50:44;14.20;99.90
2010;DHT22;1008;47.404;8.502;2023-08-06T04:53:11;14.00;99.90
2010;DHT22;1008;47.404;8.502;2023-08-06T04:55:37;13.90;99.90
2010;DHT22;1008;47.404;8.502;2023-08-06T04:58:04;13.90;99.90
2010;DHT22;1008;47.404;8.502;2023-08-06T05:00:31;13.80;99.90
2010;DHT22;1008;47.404;8.502;2023-08-06T05:03:04;13.70;99.90
2010;DHT22;1008;47.404;8.502;2023-08-06T05:05:31;13.70;99.90
2010;DHT22;1008;47.404;8.502;2023-08-06T05:07:57;13.80;99.90
2010;DHT22;1008;47.404;8.502;2023-08-06T05:10:24;13.80;99.90
2010;DHT22;1008;47.404;8.502;2023-08-06T05:12:51;13.60;99.90
2010;DHT22;1008;47.404;8.502;2023-08-06T05:15:18;13.70;99.90
2010;DHT22;1008;47.404;8.502;2023-08-06T05:17:45;13.70;99.90
2010;DHT22;1008;47.404;8.502;2023-08-06T05:20:13;13.90;99.90
2010;DHT22;1008;47.404;8.502;2023-08-06T05:22:40;13.70;99.90
2010;DHT22;1008;47.404;8.502;2023-08-06T05:25:07;13.80;99.90
2010;DHT22;1008;47.404;8.502;2023-08-06T05:27:34;13.70;99.90
2010;DHT22;1008;47.404;8.502;2023-08-06T05:30:00;13.80;99.90
2010;DHT22;1008;47.404;8.502;2023-08-06T05:32:27;14.00;99.90
2010;DHT22;1008;47.404;8.502;2023-08-06T05:34:54;14.00;99.90
2010;DHT22;1008;47.404;8.502;2023-08-06T05:37:22;14.00;99.90
2010;DHT22;1008;47.404;8.502;2023-08-06T05:39:49;14.00;99.90
2010;DHT22;1008;47.404;8.502;2023-08-06T05:42:16;14.20;99.90
2010;DHT22;1008;47.404;8.502;2023-08-06T05:44:42;14.30;99.90
2010;DHT22;1008;47.404;8.502;2023-08-06T05:47:09;14.30;99.90
2010;DHT22;1008;47.404;8.502;2023-08-06T05:49:36;14.50;99.90
2010;DHT22;1008;47.404;8.502;2023-08-06T05:52:03;14.60;99.90
2010;DHT22;1008;47.404;8.502;2023-08-06T05:54:32;14.70;99.90
2010;DHT22;1008;47.404;8.502;2023-08-06T05:56:59;14.70;99.90
2010;DHT22;1008;47.404;8.502;2023-08-06T05:59:26;14.70;99.90
2010;DHT22;1008;47.404;8.502;2023-08-06T06:01:52;14.70;99.90
2010;DHT22;1008;47.404;8.502;2023-08-06T06:04:19;14.90;99.90
2010;DHT22;1008;47.404;8.502;2023-08-06T06:06:46;14.80;99.90
2010;DHT22;1008;47.404;8.502;2023-08-06T06:09:13;14.60;99.90
2010;DHT22;1008;47.404;8.502;2023-08-06T06:11:41;14.60;99.90
2010;DHT22;1008;47.404;8.502;2023-08-06T06:14:07;14.50;99.90
2010;DHT22;1008;47.404;8.502;2023-08-06T06:16:34;14.70;99.90
2010;DHT22;1008;47.404;8.502;2023-08-06T06:19:01;14.70;99.90
2010;DHT22;1008;47.404;8.502;2023-08-06T06:21:28;14.60;99.90
2010;DHT22;1008;47.404;8.502;2023-08-06T06:23:54;14.60;99.90
2010;DHT22;1008;47.404;8.502;2023-08-06T06:26:22;14.60;99.90
2010;DHT22;1008;47.404;8.502;2023-08-06T06:28:50;14.70;99.90
2010;DHT22;1008;47.404;8.502;2023-08-06T06:31:16;15.00;99.90
2010;DHT22;1008;47.404;8.502;2023-08-06T06:33:43;15.00;99.90
2010;DHT22;1008;47.404;8.502;2023-08-06T06:36:10;15.00;99.90
2010;DHT22;1008;47.404;8.502;2023-08-06T06:38:37;14.90;99.90
2010;DHT22;1008;47.404;8.502;2023-08-06T06:41:04;14.80;99.90
2010;DHT22;1008;47.404;8.502;2023-08-06T06:43:31;14.80;99.90
2010;DHT22;1008;47.404;8.502;2023-08-06T06:45:59;14.90;99.90
2010;DHT22;1008;47.404;8.502;2023-08-06T06:48:28;15.10;99.90
2010;DHT22;1008;47.404;8.502;2023-08-06T06:50:55;15.50;99.90
2010;DHT22;1008;47.404;8.502;2023-08-06T06:53:22;15.30;99.90
2010;DHT22;1008;47.404;8.502;2023-08-06T06:55:52;15.20;99.90
2010;DHT22;1008;47.404;8.502;2023-08-06T06:58:19;15.10;99.90
2010;DHT22;1008;47.404;8.502;2023-08-06T07:00:46;15.10;99.90
2010;DHT22;1008;47.404;8.502;2023-08-06T07:03:14;15.10;99.90
2010;DHT22;1008;47.404;8.502;2023-08-06T07:05:43;15.10;99.90
2010;DHT22;1008;47.404;8.502;2023-08-06T07:08:09;15.10;99.90
2010;DHT22;1008;47.404;8.502;2023-08-06T07:10:36;15.00;99.90
2010;DHT22;1008;47.404;8.502;2023-08-06T07:13:03;14.70;99.90
2010;DHT22;1008;47.404;8.502;2023-08-06T07:15:30;14.30;99.90
2010;DHT22;1008;47.404;8.502;2023-08-06T07:17:56;14.30;99.90
2010;DHT22;1008;47.404;8.502;2023-08-06T07:20:24;14.30;99.90
2010;DHT22;1008;47.404;8.502;2023-08-06T07:22:51;14.30;99.90
2010;DHT22;1008;47.404;8.502;2023-08-06T07:25:18;14.30;99.90
2010;DHT22;1008;47.404;8.502;2023-08-06T07:27:45;14.50;99.90
2010;DHT22;1008;47.404;8.502;2023-08-06T07:30:11;14.60;99.90
2010;DHT22;1008;47.404;8.502;2023-08-06T07:32:38;14.80;99.90
2010;DHT22;1008;47.404;8.502;2023-08-06T07:35:05;14.80;99.90
2010;DHT22;1008;47.404;8.502;2023-08-06T07:37:34;14.80;99.90
2010;DHT22;1008;47.404;8.502;2023-08-06T07:40:01;14.80;99.90
2010;DHT22;1008;47.404;8.502;2023-08-06T07:42:29;14.70;99.90
2010;DHT22;1008;47.404;8.502;2023-08-06T07:44:57;14.50;99.90
2010;DHT22;1008;47.404;8.502;2023-08-06T07:47:24;14.60;99.90
2010;DHT22;1008;47.404;8.502;2023-08-06T07:49:51;14.50;99.90
2010;DHT22;1008;47.404;8.502;2023-08-06T07:52:18;14.60;99.90
2010;DHT22;1008;47.404;8.502;2023-08-06T07:54:46;14.50;99.90
2010;DHT22;1008;47.404;8.502;2023-08-06T07:57:13;14.50;99.90
2010;DHT22;1008;47.404;8.502;2023-08-06T07:59:40;14.50;99.90
2010;DHT22;1008;47.404;8.502;2023-08-06T08:02:07;14.30;99.90
2010;DHT22;1008;47.404;8.502;2023-08-06T08:04:34;14.00;99.90
2010;DHT22;1008;47.404;8.502;2023-08-06T08:07:01;13.90;99.90
2010;DHT22;1008;47.404;8.502;2023-08-06T08:09:27;13.90;99.90
2010;DHT22;1008;47.404;8.502;2023-08-06T08:11:56;13.70;99.90
2010;DHT22;1008;47.404;8.502;2023-08-06T08:14:24;13.70;99.90
2010;DHT22;1008;47.404;8.502;2023-08-06T08:16:51;13.50;99.90
2010;DHT22;1008;47.404;8.502;2023-08-06T08:19:17;13.50;99.90
2010;DHT22;1008;47.404;8.502;2023-08-06T08:21:45;13.50;99.90
2010;DHT22;1008;47.404;8.502;2023-08-06T08:24:11;13.60;99.90
2010;DHT22;1008;47.404;8.502;2023-08-06T08:26:38;13.50;99.90
2010;DHT22;1008;47.404;8.502;2023-08-06T08:29:06;13.50;99.90
2010;DHT22;1008;47.404;8.502;2023-08-06T08:31:33;13.50;99.90
2010;DHT22;1008;47.404;8.502;2023-08-06T08:34:04;13.50;99.90
2010;DHT22;1008;47.404;8.502;2023-08-06T08:36:31;13.50;99.90
2010;DHT22;1008;47.404;8.502;2023-08-06T08:38:58;13.20;99.90
2010;DHT22;1008;47.404;8.502;2023-08-06T08:41:24;13.20;99.90
2010;DHT22;1008;47.404;8.502;2023-08-06T08:43:51;13.10;99.90
2010;DHT22;1008;47.404;8.502;2023-08-06T08:46:20;13.10;99.90
2010;DHT22;1008;47.404;8.502;2023-08-06T08:48:47;13.20;99.90
2010;DHT22;1008;47.404;8.502;2023-08-06T08:51:15;13.10;99.90
2010;DHT22;1008;47.404;8.502;2023-08-06T08:53:44;13.00;99.90
2010;DHT22;1008;47.404;8.502;2023-08-06T08:56:13;13.10;99.90
2010;DHT22;1008;47.404;8.502;2023-08-06T08:58:40;13.20;99.90
2010;DHT22;1008;47.404;8.502;2023-08-06T09:01:07;13.20;99.90
2010;DHT22;1008;47.404;8.502;2023-08-06T09:03:37;13.30;99.90
2010;DHT22;1008;47.404;8.502;2023-08-06T09:06:04;13.60;99.90
2010;DHT22;1008;47.404;8.502;2023-08-06T09:08:36;13.50;99.90
2010;DHT22;1008;47.404;8.502;2023-08-06T09:11:04;13.50;99.90
2010;DHT22;1008;47.404;8.502;2023-08-06T09:13:31;13.70;99.90
2010;DHT22;1008;47.404;8.502;2023-08-06T09:15:58;13.60;99.90
2010;DHT22;1008;47.404;8.502;2023-08-06T09:18:29;13.40;99.90
2010;DHT22;1008;47.404;8.502;2023-08-06T09:20:58;13.40;99.90
2010;DHT22;1008;47.404;8.502;2023-08-06T09:23:27;13.50;99.90
2010;DHT22;1008;47.404;8.502;2023-08-06T09:25:56;13.60;99.90
2010;DHT22;1008;47.404;8.502;2023-08-06T09:28:23;13.60;99.90
2010;DHT22;1008;47.404;8.502;2023-08-06T09:30:50;13.70;99.90
2010;DHT22;1008;47.404;8.502;2023-08-06T09:33:22;13.70;99.90
2010;DHT22;1008;47.404;8.502;2023-08-06T09:35:49;13.40;99.90
2010;DHT22;1008;47.404;8.502;2023-08-06T09:38:17;13.50;99.90
2010;DHT22;1008;47.404;8.502;2023-08-06T09:40:44;13.50;99.90
2010;DHT22;1008;47.404;8.502;2023-08-06T09:43:11;13.60;99.90
2010;DHT22;1008;47.404;8.502;2023-08-06T09:45:39;13.70;99.90
2010;DHT22;1008;47.404;8.502;2023-08-06T09:48:07;13.70;99.90
2010;DHT22;1008;47.404;8.502;2023-08-06T09:50:35;13.80;99.90
2010;DHT22;1008;47.404;8.502;2023-08-06T09:53:03;14.00;99.90
2010;DHT22;1008;47.404;8.502;2023-08-06T09:55:32;14.20;99.90
2010;DHT22;1008;47.404;8.502;2023-08-06T09:57:59;14.20;99.90
2010;DHT22;1008;47.404;8.502;2023-08-06T10:00:26;14.00;99.90
2010;DHT22;1008;47.404;8.502;2023-08-06T10:02:54;13.90;99.90
2010;DHT22;1008;47.404;8.502;2023-08-06T10:05:22;13.90;99.90
2010;DHT22;1008;47.404;8.502;2023-08-06T10:07:50;14.00;99.90
2010;DHT22;1008;47.404;8.502;2023-08-06T10:10:17;13.90;99.90
2010;DHT22;1008;47.404;8.502;2023-08-06T10:12:48;13.90;99.90
2010;DHT22;1008;47.404;8.502;2023-08-06T10:15:25;13.80;99.90
2010;DHT22;1008;47.404;8.502;2023-08-06T10:17:56;13.80;99.90
2010;DHT22;1008;47.404;8.502;2023-08-06T10:20:23;13.80;99.90
2010;DHT22;1008;47.404;8.502;2023-08-06T10:23:01;14.10;99.90
2010;DHT22;1008;47.404;8.502;2023-08-06T10:25:31;13.80;99.90
2010;DHT22;1008;47.404;8.502;2023-08-06T10:28:00;13.70;99.90
2010;DHT22;1008;47.404;8.502;2023-08-06T10:30:30;13.70;99.90
2010;DHT22;1008;47.404;8.502;2023-08-06T10:32:58;13.80;99.90
2010;DHT22;1008;47.404;8.502;2023-08-06T10:35:31;13.70;99.90
2010;DHT22;1008;47.404;8.502;2023-08-06T10:37:59;13.70;99.90
2010;DHT22;1008;47.404;8.502;2023-08-06T10:40:26;13.80;99.90
2010;DHT22;1008;47.404;8.502;2023-08-06T10:42:54;13.90;99.90
2010;DHT22;1008;47.404;8.502;2023-08-06T10:45:23;14.00;99.90
2010;DHT22;1008;47.404;8.502;2023-08-06T10:47:54;14.00;99.90
2010;DHT22;1008;47.404;8.502;2023-08-06T10:50:21;14.00;99.90
2010;DHT22;1008;47.404;8.502;2023-08-06T10:52:48;14.20;99.90
2010;DHT22;1008;47.404;8.502;2023-08-06T10:55:22;13.80;99.90
2010;DHT22;1008;47.404;8.502;2023-08-06T10:57:49;13.70;99.90
2010;DHT22;1008;47.404;8.502;2023-08-06T11:00:16;13.60;99.90
2010;DHT22;1008;47.404;8.502;2023-08-06T11:02:44;13.80;99.90
2010;DHT22;1008;47.404;8.502;2023-08-06T11:05:13;13.60;99.90
2010;DHT22;1008;47.404;8.502;2023-08-06T11:07:39;13.50;99.90
2010;DHT22;1008;47.404;8.502;2023-08-06T11:10:08;13.50;99.90
2010;DHT22;1008;47.404;8.502;2023-08-06T11:12:35;13.60;99.90
2010;DHT22;1008;47.404;8.502;2023-08-06T11:15:03;13.40;99.90
2010;DHT22;1008;47.404;8.502;2023-08-06T11:17:32;13.50;99.90
2010;DHT22;1008;47.404;8.502;2023-08-06T11:20:01;13.60;99.90
2010;DHT22;1008;47.404;8.502;2023-08-06T11:22:28;13.70;99.90
2010;DHT22;1008;47.404;8.502;2023-08-06T11:24:55;13.80;99.90
2010;DHT22;1008;47.404;8.502;2023-08-06T11:27:22;14.00;99.90
2010;DHT22;1008;47.404;8.502;2023-08-06T11:29:49;14.00;99.90
2010;DHT22;1008;47.404;8.502;2023-08-06T11:32:15;14.00;99.90
2010;DHT22;1008;47.404;8.502;2023-08-06T11:34:43;14.10;99.90
2010;DHT22;1008;47.404;8.502;2023-08-06T11:37:11;14.00;99.90
2010;DHT22;1008;47.404;8.502;2023-08-06T11:39:38;14.10;99.90
2010;DHT22;1008;47.404;8.502;2023-08-06T11:42:12;14.20;99.90
2010;DHT22;1008;47.404;8.502;2023-08-06T11:44:41;14.30;99.90
2010;DHT22;1008;47.404;8.502;2023-08-06T11:47:12;14.30;99.90
2010;DHT22;1008;47.404;8.502;2023-08-06T11:49:41;14.50;99.90
2010;DHT22;1008;47.404;8.502;2023-08-06T11:52:21;14.20;99.90
2010;DHT22;1008;47.404;8.502;2023-08-06T11:55:00;14.20;99.90
2010;DHT22;1008;47.404;8.502;2023-08-06T11:57:29;14.10;99.90
2010;DHT22;1008;47.404;8.502;2023-08-06T11:59:58;14.10;99.90
2010;DHT22;1008;47.404;8.502;2023-08-06T12:02:31;14.20;99.90
2010;DHT22;1008;47.404;8.502;2023-08-06T12:05:01;14.30;99.90
2010;DHT22;1008;47.404;8.502;2023-08-06T12:07:31;14.30;99.90
2010;DHT22;1008;47.404;8.502;2023-08-06T12:09:59;14.20;99.90
2010;DHT22;1008;47.404;8.502;2023-08-06T12:12:26;14.40;99.90
2010;DHT22;1008;47.404;8.502;2023-08-06T12:14:52;14.40;99.90
2010;DHT22;1008;47.404;8.502;2023-08-06T12:17:19;14.50;99.90
2010;DHT22;1008;47.404;8.502;2023-08-06T12:19:46;14.50;99.90
2010;DHT22;1008;47.404;8.502;2023-08-06T12:22:14;14.50;99.90
2010;DHT22;1008;47.404;8.502;2023-08-06T12:24:42;14.40;99.90
2010;DHT22;1008;47.404;8.502;2023-08-06T12:27:09;14.30;99.90
2010;DHT22;1008;47.404;8.502;2023-08-06T12:29:37;14.20;99.90
2010;DHT22;1008;47.404;8.502;2023-08-06T12:32:04;14.30;99.90
2010;DHT22;1008;47.404;8.502;2023-08-06T12:34:31;13.90;99.90
2010;DHT22;1008;47.404;8.502;2023-08-06T12:36:58;13.80;99.90
2010;DHT22;1008;47.404;8.502;2023-08-06T12:39:25;13.80;99.90
2010;DHT22;1008;47.404;8.502;2023-08-06T12:41:55;13.60;99.90
2010;DHT22;1008;47.404;8.502;2023-08-06T12:44:23;13.70;99.90
2010;DHT22;1008;47.404;8.502;2023-08-06T12:46:49;13.80;99.90
2010;DHT22;1008;47.404;8.502;2023-08-06T12:49:16;13.90;99.90
2010;DHT22;1008;47.404;8.502;2023-08-06T12:51:43;14.10;99.90
2010;DHT22;1008;47.404;8.502;2023-08-06T12:54:10;14.20;99.90
2010;DHT22;1008;47.404;8.502;2023-08-06T12:56:36;14.10;99.90
2010;DHT22;1008;47.404;8.502;2023-08-06T12:59:04;14.20;99.90
2010;DHT22;1008;47.404;8.502;2023-08-06T13:01:31;14.30;99.90
2010;DHT22;1008;47.404;8.502;2023-08-06T13:03:59;14.20;99.90
2010;DHT22;1008;47.404;8.502;2023-08-06T13:06:26;14.20;99.90
2010;DHT22;1008;47.404;8.502;2023-08-06T13:08:52;14.30;99.90
2010;DHT22;1008;47.404;8.502;2023-08-06T13:11:19;13.90;99.90
2010;DHT22;1008;47.404;8.502;2023-08-06T13:13:46;14.00;99.90
2010;DHT22;1008;47.404;8.502;2023-08-06T13:16:14;13.80;99.90
2010;DHT22;1008;47.404;8.502;2023-08-06T13:18:40;13.80;99.90
2010;DHT22;1008;47.404;8.502;2023-08-06T13:21:07;14.00;99.90
2010;DHT22;1008;47.404;8.502;2023-08-06T13:23:34;13.90;99.90
2010;DHT22;1008;47.404;8.502;2023-08-06T13:26:01;13.90;99.90
2010;DHT22;1008;47.404;8.502;2023-08-06T13:28:27;14.00;99.90
2010;DHT22;1008;47.404;8.502;2023-08-06T13:30:54;14.00;99.90
2010;DHT22;1008;47.404;8.502;2023-08-06T13:33:22;14.40;99.90
2010;DHT22;1008;47.404;8.502;2023-08-06T13:35:49;14.20;99.90
2010;DHT22;1008;47.404;8.502;2023-08-06T13:38:16;14.40;99.90
2010;DHT22;1008;47.404;8.502;2023-08-06T13:40:43;14.30;99.90
2010;DHT22;1008;47.404;8.502;2023-08-06T13:43:09;14.70;99.90
2010;DHT22;1008;47.404;8.502;2023-08-06T13:45:36;15.00;99.90
2010;DHT22;1008;47.404;8.502;2023-08-06T13:48:03;15.10;99.90
2010;DHT22;1008;47.404;8.502;2023-08-06T13:50:31;15.20;99.90
2010;DHT22;1008;47.404;8.502;2023-08-06T13:52:58;15.10;99.90
2010;DHT22;1008;47.404;8.502;2023-08-06T13:55:25;15.30;99.90
2010;DHT22;1008;47.404;8.502;2023-08-06T13:57:52;15.40;99.90
2010;DHT22;1008;47.404;8.502;2023-08-06T14:00:18;15.00;99.90
2010;DHT22;1008;47.404;8.502;2023-08-06T14:02:45;14.90;99.90
2010;DHT22;1008;47.404;8.502;2023-08-06T14:05:14;14.80;99.90
2010;DHT22;1008;47.404;8.502;2023-08-06T14:07:42;14.70;99.90
2010;DHT22;1008;47.404;8.502;2023-08-06T14:10:08;14.70;99.90
2010;DHT22;1008;47.404;8.502;2023-08-06T14:12:35;14.70;99.90
2010;DHT22;1008;47.404;8.502;2023-08-06T14:15:03;14.70;99.90
2010;DHT22;1008;47.404;8.502;2023-08-06T14:17:29;14.90;99.90
2010;DHT22;1008;47.404;8.502;2023-08-06T14:19:56;15.00;99.90
2010;DHT22;1008;47.404;8.502;2023-08-06T14:22:23;15.00;99.90
2010;DHT22;1008;47.404;8.502;2023-08-06T14:24:51;15.00;99.90
2010;DHT22;1008;47.404;8.502;2023-08-06T14:27:18;15.10;99.90
2010;DHT22;1008;47.404;8.502;2023-08-06T14:29:45;15.60;99.90
2010;DHT22;1008;47.404;8.502;2023-08-06T14:32:12;15.60;99.90
2010;DHT22;1008;47.404;8.502;2023-08-06T14:34:38;15.60;99.90
2010;DHT22;1008;47.404;8.502;2023-08-06T14:37:05;15.50;99.90
2010;DHT22;1008;47.404;8.502;2023-08-06T14:39:32;15.60;99.90
2010;DHT22;1008;47.404;8.502;2023-08-06T14:42:00;15.50;99.90
2010;DHT22;1008;47.404;8.502;2023-08-06T14:44:27;15.60;99.90
2010;DHT22;1008;47.404;8.502;2023-08-06T14:46:54;15.60;99.90
2010;DHT22;1008;47.404;8.502;2023-08-06T14:49:21;15.70;99.90
2010;DHT22;1008;47.404;8.502;2023-08-06T14:51:47;15.80;99.90
2010;DHT22;1008;47.404;8.502;2023-08-06T14:54:14;15.70;99.90
2010;DHT22;1008;47.404;8.502;2023-08-06T14:56:41;15.50;99.90
2010;DHT22;1008;47.404;8.502;2023-08-06T14:59:09;15.50;99.90
2010;DHT22;1008;47.404;8.502;2023-08-06T15:01:35;15.40;99.90
2010;DHT22;1008;47.404;8.502;2023-08-06T15:04:02;15.50;99.90
2010;DHT22;1008;47.404;8.502;2023-08-06T15:06:29;15.60;99.90
2010;DHT22;1008;47.404;8.502;2023-08-06T15:08:56;15.70;99.90
2010;DHT22;1008;47.404;8.502;2023-08-06T15:11:26;15.80;99.90
2010;DHT22;1008;47.404;8.502;2023-08-06T15:13:53;15.70;99.90
2010;DHT22;1008;47.404;8.502;2023-08-06T15:16:21;15.70;99.90
2010;DHT22;1008;47.404;8.502;2023-08-06T15:18:47;15.70;99.90
2010;DHT22;1008;47.404;8.502;2023-08-06T15:21:14;15.60;99.90
2010;DHT22;1008;47.404;8.502;2023-08-06T15:23:41;15.60;99.90
2010;DHT22;1008;47.404;8.502;2023-08-06T15:26:08;15.50;99.90
2010;DHT22;1008;47.404;8.502;2023-08-06T15:28:35;15.50;99.90
2010;DHT22;1008;47.404;8.502;2023-08-06T15:31:02;15.80;99.90
2010;DHT22;1008;47.404;8.502;2023-08-06T15:33:32;15.80;99.90
2010;DHT22;1008;47.404;8.502;2023-08-06T15:35:59;15.50;99.90
2010;DHT22;1008;47.404;8.502;2023-08-06T15:38:26;15.50;99.90
2010;DHT22;1008;47.404;8.502;2023-08-06T15:40:53;15.40;99.90
2010;DHT22;1008;47.404;8.502;2023-08-06T15:43:20;15.40;99.90
2010;DHT22;1008;47.404;8.502;2023-08-06T15:45:46;15.60;99.90
2010;DHT22;1008;47.404;8.502;2023-08-06T15:48:13;15.90;99.90
2010;DHT22;1008;47.404;8.502;2023-08-06T15:50:41;15.90;99.90
2010;DHT22;1008;47.404;8.502;2023-08-06T15:53:08;16.10;99.90
2010;DHT22;1008;47.404;8.502;2023-08-06T15:55:36;16.50;99.90
2010;DHT22;1008;47.404;8.502;2023-08-06T15:58:03;16.50;99.90
2010;DHT22;1008;47.404;8.502;2023-08-06T16:00:30;16.50;99.90
2010;DHT22;1008;47.404;8.502;2023-08-06T16:02:57;16.70;99.90